Wauneta, NE

4:59 PM MST on December 26, 2014 (GMT -0700)
McCook Municipal | Change Station
CLOSE
Current Station
Airport
Location: McCook,
Elevation: 2579 ft
Nearby Weather Stations
Active Advisory: Winter Weather Advisory

Elev 2579 ft 40.20 °N, 100.59 °W | Updated 6 minutes ago

Overcast
Overcast
23 °F
Feels Like 12 °F
N
10
Wind Variable Wind from North

Today
High -- | Low -- °F
--% Chance of Precip.
Yesterday
High -- | Low -- °F
Precip. -- in
7:07 AM 4:25 PM
Waxing Crescent, 30% visible
Pressure 30.12 in
Visibility 6.0 miles
Clouds Few 4700 ft
Overcast 8000 ft
Windchill 12 °F
Dew Point 20 °F
Humidity 88%
Rainfall 0.00 in
Snow Depth Not available.
UV 0 out of 12
Pollen .10 out of 12
Air Quality Not available.
Flu Activity Not available.
METAR KMCK 262353Z AUTO 36009KT 6SM BR FEW047 OVC080 M05/M07 A3003 RMK AO2 SNE49 SLP199 P0000 60000 T10501067 11028 21050 51014

More Conditions Fewer Conditions

Pressure 30.12 in
Visibility 6.0 miles
Clouds Few 4700 ft
Overcast 8000 ft
Windchill 12 °F
Dew Point 20 °F
Humidity 88%
Rainfall 0.00 in
Snow Depth Not available.
UV 0 out of 12
Pollen .10 out of 12
Air Quality Not available.
Flu Activity Not available.
METAR KMCK 262353Z AUTO 36009KT 6SM BR FEW047 OVC080 M05/M07 A3003 RMK AO2 SNE49 SLP199 P0000 60000 T10501067 11028 21050 51014

More Conditions Fewer Conditions

Nowcast | as of 4:39 PM CST on December 26, 2014

Light to moderate snow will continue through the evening hours. Total snowfall of 3 to 6 inches can be expected by the time the snow ends late this evening.

×

10-Day Weather Forecast

Almanac

Astronomy

Dec. 26, 2014 Rise Set
Actual Time
Civil Twilight
Nautical Twilight
Astronomical Twilight
Moon
Length of Visible Light
Length of Day
Tomorrow will be .
, % of the Moon is Illuminated

Today's Extremes

State Highs State Lows

Community

WunderPhotos

Upload Photos

1,780,769 photos uploaded!

WunderBlogs® & News

Nearby

Air Quality

  Air Quality AQ Index Pollutant
Not available.

Snow Depth

Station Depth Elevation

Earthquake Activity

City Distance Mag. Time & Date
Minimum magnitude displayed is 2.5.

Coastal Water Temperatures

Place Temperature

Nearby Weather Stations